Time;durP1;ratioP1;P1;durP2;ratioP2;P2;SDS_P1;SDS_P2;PMS_P1;PMS_P2;Temp;Humidity;BMP_temperature;BMP_pressure;BME280_temperature;BME280_humidity;BME280_pressure;Samples;Min_cycle;Max_cycle;Signal;HPM_P1;HPM_P2
2023/12/04 00:00:03;;;;;;;30.80;16.67;;;1.50;99.90;;;;;;5034624;28;20040;-75
2023/12/04 00:02:28;;;;;;;31.77;17.45;;;1.40;99.90;;;;;;5035999;28;20064;-76
2023/12/04 00:04:54;;;;;;;32.53;17.40;;;1.40;99.90;;;;;;5032268;28;20119;-75
2023/12/04 00:07:20;;;;;;;34.35;16.92;;;1.40;99.90;;;;;;5035991;28;20056;-75
2023/12/04 00:09:45;;;;;;;30.95;16.83;;;1.40;99.90;;;;;;5034366;28;20036;-76
2023/12/04 00:12:11;;;;;;;32.33;17.08;;;1.40;99.90;;;;;;5035091;28;20045;-76
2023/12/04 00:14:37;;;;;;;30.70;17.27;;;1.40;99.90;;;;;;5034091;28;20670;-74
2023/12/04 00:17:02;;;;;;;31.67;16.90;;;1.40;99.90;;;;;;5029716;28;20086;-76
2023/12/04 00:19:28;;;;;;;34.53;16.48;;;1.40;99.90;;;;;;5034838;28;20408;-76
2023/12/04 00:21:53;;;;;;;30.05;16.55;;;1.40;99.90;;;;;;5030398;28;20506;-75
2023/12/04 00:24:20;;;;;;;33.95;17.88;;;1.40;99.90;;;;;;5049313;28;20135;-75
2023/12/04 00:26:46;;;;;;;29.33;17.42;;;1.40;99.90;;;;;;5049188;28;20116;-75
2023/12/04 00:29:11;;;;;;;28.17;16.35;;;1.40;99.90;;;;;;5030459;28;20053;-76
2023/12/04 00:31:37;;;;;;;31.73;16.08;;;1.40;99.90;;;;;;5017450;28;20065;-75
2023/12/04 00:34:02;;;;;;;32.30;16.65;;;1.40;99.90;;;;;;5046920;28;20099;-75
2023/12/04 00:36:28;;;;;;;30.85;16.92;;;1.40;99.90;;;;;;5052018;28;20041;-75
2023/12/04 00:38:53;;;;;;;32.17;16.58;;;1.40;99.90;;;;;;5033940;28;20048;-75
2023/12/04 00:41:19;;;;;;;31.25;16.90;;;1.40;99.90;;;;;;5034847;28;20045;-75
2023/12/04 00:43:44;;;;;;;32.42;17.00;;;1.40;99.90;;;;;;5051156;28;20060;-75
2023/12/04 00:46:10;;;;;;;31.10;17.35;;;1.40;99.90;;;;;;5049418;22;20442;-72
2023/12/04 00:48:36;;;;;;;31.90;15.88;;;1.40;99.90;;;;;;5044153;28;20037;-73
2023/12/04 00:51:01;;;;;;;33.63;17.65;;;1.40;99.90;;;;;;5033823;28;20044;-72
2023/12/04 00:53:27;;;;;;;32.58;16.73;;;2.50;99.90;;;;;;5043229;28;20040;-72
2023/12/04 00:55:53;;;;;;;32.70;17.20;;;1.40;99.90;;;;;;5049387;28;20075;-72
2023/12/04 00:58:18;;;;;;;33.22;17.15;;;1.40;99.90;;;;;;5029768;28;20044;-72
2023/12/04 01:00:44;;;;;;;33.42;17.30;;;1.40;99.90;;;;;;5020966;28;20072;-72
2023/12/04 01:03:09;;;;;;;28.63;15.48;;;1.40;99.90;;;;;;5050755;28;20087;-72
2023/12/04 01:05:37;;;;;;;31.67;16.90;;;1.40;99.90;;;;;;5056322;28;20116;-73
2023/12/04 01:08:03;;;;;;;33.85;16.80;;;1.40;99.90;;;;;;5017390;28;20068;-73
2023/12/04 01:10:28;;;;;;;35.20;17.45;;;1.40;99.90;;;;;;5053240;28;20464;-72
2023/12/04 01:12:54;;;;;;;36.25;17.27;;;1.40;99.90;;;;;;5050517;28;20048;-72
2023/12/04 01:15:20;;;;;;;35.22;17.45;;;1.40;99.90;;;;;;5035837;28;20089;-72
2023/12/04 01:17:45;;;;;;;33.67;16.58;;;1.40;99.90;;;;;;5051122;28;20049;-72
2023/12/04 01:20:11;;;;;;;33.97;17.60;;;1.40;99.90;;;;;;5032571;28;20037;-73
2023/12/04 01:22:36;;;;;;;33.35;17.52;;;1.40;99.90;;;;;;5051470;28;20500;-72
2023/12/04 01:25:03;;;;;;;31.95;16.80;;;1.40;99.90;;;;;;5039571;28;20048;-72
2023/12/04 01:27:28;;;;;;;32.45;17.48;;;1.50;99.90;;;;;;5052611;28;20044;-72
2023/12/04 01:29:54;;;;;;;30.83;16.55;;;1.50;99.90;;;;;;5044813;28;20040;-72
2023/12/04 01:32:19;;;;;;;34.25;17.83;;;1.50;99.90;;;;;;5028508;28;20505;-72
2023/12/04 01:34:45;;;;;;;35.08;18.42;;;1.50;99.90;;;;;;5033971;28;20473;-72
2023/12/04 01:37:11;;;;;;;32.90;17.23;;;1.50;99.90;;;;;;5043001;28;20048;-72
2023/12/04 01:39:37;;;;;;;32.88;16.90;;;1.40;99.90;;;;;;5053392;28;20076;-72
2023/12/04 01:42:03;;;;;;;30.75;17.00;;;1.40;99.90;;;;;;5054945;28;20425;-72
2023/12/04 01:44:31;;;;;;;32.85;17.27;;;1.40;99.90;;;;;;5049792;28;20044;-72
2023/12/04 01:46:56;;;;;;;31.48;17.00;;;1.40;99.90;;;;;;5048465;28;20045;-73
2023/12/04 01:49:24;;;;;;;33.28;17.38;;;1.50;99.90;;;;;;5033075;28;20073;-72
2023/12/04 01:51:49;;;;;;;33.63;17.20;;;1.50;99.90;;;;;;5049111;28;20405;-72
2023/12/04 01:54:16;;;;;;;34.17;16.75;;;1.40;99.90;;;;;;5052171;28;20043;-72
2023/12/04 01:56:43;;;;;;;32.47;17.48;;;1.40;99.90;;;;;;5048714;28;20108;-72
2023/12/04 01:59:08;;;;;;;32.78;17.38;;;1.50;99.90;;;;;;5051248;28;20037;-72
2023/12/04 02:01:36;;;;;;;31.35;16.90;;;1.50;99.90;;;;;;5054167;28;20086;-72
2023/12/04 02:04:03;;;;;;;35.75;17.23;;;1.50;99.90;;;;;;5045683;28;20045;-72
2023/12/04 02:06:28;;;;;;;33.70;17.85;;;1.50;99.90;;;;;;5033034;28;20060;-72
2023/12/04 02:08:54;;;;;;;33.20;17.02;;;1.50;99.90;;;;;;5032048;28;20037;-72
2023/12/04 02:11:19;;;;;;;31.77;17.20;;;1.50;99.90;;;;;;5033198;28;20040;-73
2023/12/04 02:13:45;;;;;;;31.92;17.73;;;1.50;99.90;;;;;;5047837;28;20041;-72
2023/12/04 02:16:16;;;;;;;33.13;17.30;;;1.50;99.90;;;;;;5043876;28;20041;-73
2023/12/04 02:18:43;;;;;;;34.00;17.17;;;1.50;99.90;;;;;;5042762;28;20044;-72
2023/12/04 02:21:09;;;;;;;31.73;16.48;;;1.50;99.90;;;;;;5051005;28;20049;-72
2023/12/04 02:23:34;;;;;;;33.13;16.95;;;1.50;99.90;;;;;;5034320;28;20512;-72
2023/12/04 02:26:06;;;;;;;34.30;17.13;;;1.50;99.90;;;;;;5020593;28;20401;-72
2023/12/04 02:28:35;;;;;;;31.15;15.65;;;1.50;99.90;;;;;;5038250;28;20060;-72
2023/12/04 02:31:04;;;;;;;33.50;16.48;;;1.50;99.90;;;;;;5016608;28;20069;-72
2023/12/04 02:33:32;;;;;;;33.45;16.48;;;1.50;99.90;;;;;;5060615;28;20082;-72
2023/12/04 02:36:00;;;;;;;32.63;16.02;;;1.50;99.90;;;;;;5032610;28;20041;-72
2023/12/04 02:38:26;;;;;;;32.83;17.02;;;1.50;99.90;;;;;;5011293;28;20042;-72
2023/12/04 02:40:52;;;;;;;29.90;15.68;;;1.50;99.90;;;;;;5053677;28;20401;-72
2023/12/04 02:43:17;;;;;;;29.92;16.00;;;1.50;99.90;;;;;;5027452;28;20041;-72
2023/12/04 02:45:43;;;;;;;33.28;16.67;;;1.50;99.90;;;;;;5043671;28;20420;-72
2023/12/04 02:48:10;;;;;;;34.28;17.60;;;1.50;99.90;;;;;;5031263;28;20037;-72
2023/12/04 02:50:35;;;;;;;31.63;15.93;;;1.50;99.90;;;;;;5036738;28;20097;-72
2023/12/04 02:53:01;;;;;;;32.10;15.48;;;1.50;99.90;;;;;;5033855;28;20443;-72
2023/12/04 02:55:27;;;;;;;27.35;15.27;;;1.50;99.90;;;;;;5038940;28;20631;-72
2023/12/04 02:57:53;;;;;;;31.77;15.30;;;1.50;99.90;;;;;;5052526;28;20239;-72
2023/12/04 03:00:18;;;;;;;30.95;15.98;;;1.50;99.90;;;;;;5052239;28;20124;-72
2023/12/04 03:02:44;;;;;;;33.20;16.23;;;1.50;99.90;;;;;;5036652;28;20043;-72
2023/12/04 03:05:10;;;;;;;34.63;16.50;;;1.50;99.90;;;;;;5029023;28;20053;-72
2023/12/04 03:07:36;;;;;;;32.17;16.38;;;1.50;99.90;;;;;;5020519;28;20045;-72
2023/12/04 03:10:01;;;;;;;31.95;16.10;;;1.50;99.90;;;;;;5030443;28;20032;-72
2023/12/04 03:12:27;;;;;;;29.90;15.63;;;1.50;99.90;;;;;;5052929;28;20112;-72
2023/12/04 03:14:52;;;;;;;30.13;16.10;;;1.50;99.90;;;;;;5053613;28;20049;-72
2023/12/04 03:17:18;;;;;;;28.10;14.90;;;1.50;99.90;;;;;;5053183;28;20029;-72
2023/12/04 03:19:43;;;;;;;29.17;14.70;;;1.50;99.90;;;;;;5053696;28;20532;-72
2023/12/04 03:22:09;;;;;;;30.13;14.95;;;1.50;99.90;;;;;;5050533;28;20037;-72
2023/12/04 03:24:34;;;;;;;29.83;14.85;;;1.50;99.90;;;;;;5053657;28;20421;-72
2023/12/04 03:27:00;;;;;;;27.90;15.35;;;1.50;99.90;;;;;;5034977;28;20044;-72
2023/12/04 03:29:25;;;;;;;32.92;16.02;;;1.50;99.90;;;;;;5035484;28;20040;-72
2023/12/04 03:31:51;;;;;;;31.05;15.88;;;1.50;99.90;;;;;;5015116;28;20037;-72
2023/12/04 03:34:16;;;;;;;31.58;16.65;;;1.50;99.90;;;;;;5057151;28;20036;-72
2023/12/04 03:36:43;;;;;;;30.50;15.98;;;1.60;99.90;;;;;;5042279;28;20037;-73
2023/12/04 03:39:09;;;;;;;28.08;14.85;;;1.50;99.90;;;;;;5034622;28;20393;-72
2023/12/04 03:41:35;;;;;;;31.30;15.43;;;1.60;99.90;;;;;;5052897;28;20041;-72
2023/12/04 03:44:00;;;;;;;31.25;15.52;;;1.50;99.90;;;;;;5041468;28;20041;-72
2023/12/04 03:46:26;;;;;;;27.80;15.30;;;1.60;99.90;;;;;;5053123;28;20033;-72
2023/12/04 03:48:51;;;;;;;29.67;15.45;;;1.60;99.90;;;;;;5054051;28;20114;-72
2023/12/04 03:51:17;;;;;;;28.50;14.35;;;1.60;99.90;;;;;;5049199;28;20049;-72
2023/12/04 03:53:42;;;;;;;28.67;15.23;;;1.60;99.90;;;;;;5036348;28;20124;-72
2023/12/04 03:56:10;;;;;;;29.20;14.65;;;1.60;99.90;;;;;;5054630;28;20029;-72
2023/12/04 03:58:37;;;;;;;28.60;14.77;;;1.60;99.90;;;;;;5012144;28;20052;-72
2023/12/04 04:01:03;;;;;;;30.67;14.95;;;1.60;99.90;;;;;;5018250;28;20494;-72
2023/12/04 04:03:29;;;;;;;29.38;14.15;;;1.60;99.90;;;;;;5030816;28;20127;-72
2023/12/04 04:05:55;;;;;;;27.05;14.27;;;1.60;99.90;;;;;;5040431;28;20049;-73
2023/12/04 04:08:20;;;;;;;29.17;14.93;;;1.60;99.90;;;;;;5022508;28;20099;-72
2023/12/04 04:10:46;;;;;;;28.52;15.00;;;1.60;99.90;;;;;;5034779;28;20049;-72
2023/12/04 04:13:11;;;;;;;29.85;14.38;;;1.60;99.90;;;;;;5038894;28;20131;-72
2023/12/04 04:15:37;;;;;;;30.50;15.27;;;1.60;99.90;;;;;;5054956;28;20063;-72
2023/12/04 04:18:02;;;;;;;28.65;15.00;;;2.30;99.90;;;;;;5030959;28;20049;-72
2023/12/04 04:20:29;;;;;;;28.83;14.73;;;1.60;99.90;;;;;;5053769;28;20045;-72
2023/12/04 04:22:54;;;;;;;27.48;14.80;;;1.60;99.90;;;;;;5037449;28;20545;-72
2023/12/04 04:25:22;;;;;;;30.58;16.48;;;1.60;99.90;;;;;;5034263;28;20116;-72
2023/12/04 04:27:48;;;;;;;29.92;15.38;;;1.60;99.90;;;;;;5043710;28;20037;-72
2023/12/04 04:30:13;;;;;;;28.98;14.13;;;1.60;99.90;;;;;;5033417;28;20033;-72
2023/12/04 04:32:39;;;;;;;31.38;16.10;;;1.60;99.90;;;;;;5034512;28;20485;-72
2023/12/04 04:35:05;;;;;;;30.33;15.48;;;1.60;99.90;;;;;;5032749;28;20040;-72
2023/12/04 04:37:30;;;;;;;28.80;15.10;;;1.60;99.90;;;;;;5035811;28;20544;-72
2023/12/04 04:39:56;;;;;;;28.08;14.77;;;1.60;99.90;;;;;;5052705;28;20052;-72
2023/12/04 04:42:22;;;;;;;26.40;14.88;;;1.60;99.90;;;;;;5046963;28;20037;-72
2023/12/04 04:44:48;;;;;;;27.10;14.35;;;1.60;99.90;;;;;;5051753;28;20029;-72
2023/12/04 04:47:13;;;;;;;28.98;15.13;;;1.60;99.90;;;;;;5040410;28;20041;-72
2023/12/04 04:49:39;;;;;;;29.85;15.30;;;1.60;99.90;;;;;;5034677;28;20044;-72
2023/12/04 04:52:05;;;;;;;28.73;14.82;;;1.60;99.90;;;;;;5055884;28;20041;-72
2023/12/04 04:54:33;;;;;;;25.30;13.95;;;1.60;99.90;;;;;;5050909;28;20036;-72
2023/12/04 04:56:59;;;;;;;27.42;14.05;;;1.60;99.90;;;;;;5053846;28;20079;-72
2023/12/04 04:59:24;;;;;;;27.45;14.52;;;1.60;99.90;;;;;;5048486;28;20064;-72
2023/12/04 05:01:50;;;;;;;28.27;15.35;;;1.60;99.90;;;;;;5031636;28;20068;-72
2023/12/04 05:04:15;;;;;;;27.38;15.35;;;1.60;99.90;;;;;;5032453;28;20045;-72
2023/12/04 05:06:41;;;;;;;26.65;14.25;;;1.60;99.90;;;;;;5048927;28;20103;-72
2023/12/04 05:09:07;;;;;;;26.50;14.35;;;1.60;99.90;;;;;;5016904;28;20037;-72
2023/12/04 05:11:33;;;;;;;27.10;13.52;;;1.60;99.90;;;;;;5030936;28;20037;-72
2023/12/04 05:13:58;;;;;;;27.80;14.32;;;1.60;99.90;;;;;;5050835;28;20033;-72
2023/12/04 05:16:24;;;;;;;27.67;13.55;;;1.60;99.90;;;;;;5048865;28;20116;-72
2023/12/04 05:18:57;;;;;;;25.85;13.55;;;1.60;99.90;;;;;;5032241;28;20037;-73
2023/12/04 05:21:22;;;;;;;24.63;13.15;;;1.60;99.90;;;;;;5031804;28;20033;-72
2023/12/04 05:23:48;;;;;;;23.23;12.75;;;1.60;99.90;;;;;;5059142;28;20036;-72
2023/12/04 05:26:14;;;;;;;21.70;12.70;;;1.60;99.90;;;;;;5049956;28;20033;-72
2023/12/04 05:28:39;;;;;;;25.00;13.63;;;1.60;99.90;;;;;;5034801;28;20056;-73
2023/12/04 05:31:06;;;;;;;26.58;13.65;;;1.60;99.90;;;;;;5029658;28;20043;-73
2023/12/04 05:33:31;;;;;;;26.52;13.82;;;1.60;99.90;;;;;;5048151;28;20106;-73
2023/12/04 05:35:59;;;;;;;26.85;13.18;;;1.60;99.90;;;;;;5046229;28;20049;-73
2023/12/04 05:38:25;;;;;;;23.40;12.98;;;1.60;99.90;;;;;;5033997;28;20045;-73
2023/12/04 05:40:51;;;;;;;24.35;13.18;;;1.60;99.90;;;;;;5047980;28;20643;-73
2023/12/04 05:43:16;;;;;;;28.25;13.35;;;1.60;99.90;;;;;;5044446;28;20048;-74
2023/12/04 05:45:42;;;;;;;26.35;12.50;;;1.60;99.90;;;;;;5022094;28;20641;-73
2023/12/04 05:48:07;;;;;;;25.17;12.90;;;2.10;99.90;;;;;;5049064;28;20068;-73
2023/12/04 05:50:33;;;;;;;24.75;13.13;;;1.60;99.90;;;;;;5049672;28;20539;-73
2023/12/04 05:52:58;;;;;;;25.38;12.85;;;1.60;99.90;;;;;;5045591;28;20118;-73
2023/12/04 05:55:24;;;;;;;23.17;12.57;;;1.60;99.90;;;;;;5030777;28;20099;-73
2023/12/04 05:57:50;;;;;;;25.63;12.93;;;1.60;99.90;;;;;;5026439;28;20094;-74
2023/12/04 06:00:15;;;;;;;24.23;12.55;;;1.60;99.90;;;;;;5015112;28;20490;-73
2023/12/04 06:02:45;;;;;;;23.88;12.93;;;1.60;99.90;;;;;;5038764;28;20547;-72
2023/12/04 06:05:11;;;;;;;26.10;12.95;;;1.70;99.90;;;;;;5045651;28;20032;-72
2023/12/04 06:07:37;;;;;;;24.85;12.50;;;1.60;99.90;;;;;;5034708;28;21546;-72
2023/12/04 06:10:06;;;;;;;24.20;12.43;;;1.60;99.90;;;;;;5020380;28;20049;-72
2023/12/04 06:12:31;;;;;;;23.50;11.95;;;1.60;99.90;;;;;;5015914;28;20032;-72
2023/12/04 06:15:00;;;;;;;21.33;11.90;;;1.60;99.90;;;;;;5051317;28;20119;-73
2023/12/04 06:17:29;;;;;;;24.77;13.20;;;1.60;99.90;;;;;;5018622;28;20629;-73
2023/12/04 06:19:55;;;;;;;23.80;12.90;;;1.60;99.90;;;;;;5030189;28;20056;-73
2023/12/04 06:22:21;;;;;;;23.02;12.30;;;1.60;99.90;;;;;;5029838;28;20489;-73
2023/12/04 06:24:48;;;;;;;23.25;12.65;;;1.60;99.90;;;;;;5045642;28;20033;-73
2023/12/04 06:27:18;;;;;;;23.05;12.15;;;1.60;99.90;;;;;;5041754;28;20045;-73
2023/12/04 06:29:44;;;;;;;23.38;12.23;;;1.60;99.90;;;;;;5030424;28;20037;-73
2023/12/04 06:32:11;;;;;;;23.65;12.38;;;1.60;99.90;;;;;;5033039;28;20497;-72
2023/12/04 06:34:37;;;;;;;22.98;11.65;;;1.60;99.90;;;;;;5030134;28;20055;-73
2023/12/04 06:37:04;;;;;;;22.38;11.57;;;1.60;99.90;;;;;;5027223;28;20481;-73
2023/12/04 06:39:33;;;;;;;22.77;11.60;;;1.60;99.90;;;;;;5013351;28;20040;-72
2023/12/04 06:41:59;;;;;;;23.17;11.55;;;1.60;99.90;;;;;;5013397;28;20052;-73
2023/12/04 06:44:25;;;;;;;22.27;11.48;;;1.60;99.90;;;;;;5048445;28;20698;-73
2023/12/04 06:46:52;;;;;;;24.08;12.00;;;1.60;99.90;;;;;;5027139;28;20034;-73
2023/12/04 06:49:26;;;;;;;21.27;11.10;;;1.60;99.90;;;;;;5028785;28;20033;-73
2023/12/04 06:51:51;;;;;;;21.33;11.93;;;1.60;99.90;;;;;;5028122;28;20116;-73
2023/12/04 06:54:17;;;;;;;22.73;11.82;;;1.60;99.90;;;;;;5046556;28;20112;-73
2023/12/04 06:56:43;;;;;;;20.55;11.07;;;1.60;99.90;;;;;;5046662;28;20041;-73
2023/12/04 06:59:09;;;;;;;20.88;11.73;;;1.60;99.90;;;;;;5029377;28;20037;-73
2023/12/04 07:01:34;;;;;;;20.02;10.82;;;1.60;99.90;;;;;;5048926;28;20033;-73
2023/12/04 07:04:00;;;;;;;19.42;10.73;;;1.60;99.90;;;;;;5027261;22;20020;-76
2023/12/04 07:06:26;;;;;;;20.92;11.02;;;1.60;99.90;;;;;;5040219;28;20036;-76
2023/12/04 07:08:51;;;;;;;19.75;11.05;;;1.60;99.90;;;;;;5042538;28;20492;-76
2023/12/04 07:11:17;;;;;;;19.00;10.90;;;1.60;99.90;;;;;;5052543;28;20554;-74
2023/12/04 07:13:42;;;;;;;19.65;10.75;;;1.60;99.90;;;;;;5024452;28;20405;-77
2023/12/04 07:16:08;;;;;;;20.05;10.48;;;1.60;99.90;;;;;;5021031;28;20056;-78
2023/12/04 07:18:34;;;;;;;20.58;10.77;;;1.60;99.90;;;;;;5018901;28;20493;-78
2023/12/04 07:21:00;;;;;;;20.02;10.13;;;1.60;99.90;;;;;;5023762;28;20071;-79
2023/12/04 07:23:26;;;;;;;19.98;10.55;;;1.60;99.90;;;;;;5031120;28;20081;-79
2023/12/04 07:25:52;;;;;;;19.10;10.50;;;1.60;99.90;;;;;;5031855;28;20037;-79
2023/12/04 07:28:18;;;;;;;19.10;10.05;;;1.60;99.90;;;;;;5024650;28;20044;-76
2023/12/04 07:30:43;;;;;;;17.45;10.48;;;1.60;99.90;;;;;;5026252;28;20041;-77
2023/12/04 07:33:09;;;;;;;20.75;10.73;;;1.60;99.90;;;;;;5024749;28;20045;-77
2023/12/04 07:35:35;;;;;;;19.83;10.05;;;1.60;99.90;;;;;;5051505;28;20047;-77
2023/12/04 07:38:00;;;;;;;17.52;10.13;;;1.60;99.90;;;;;;5034125;28;20044;-77
2023/12/04 07:40:26;;;;;;;17.23;9.98;;;1.60;99.90;;;;;;5044571;28;20094;-76
2023/12/04 07:42:51;;;;;;;16.88;9.43;;;1.70;99.90;;;;;;5048400;28;20055;-77
2023/12/04 07:45:17;;;;;;;17.33;9.40;;;1.60;99.90;;;;;;5041135;28;20029;-77
2023/12/04 07:47:42;;;;;;;16.38;9.38;;;1.60;99.90;;;;;;5023560;28;20124;-77
2023/12/04 07:50:08;;;;;;;15.38;8.80;;;1.60;99.90;;;;;;5043739;28;20075;-77
2023/12/04 07:52:34;;;;;;;16.27;9.02;;;1.60;99.90;;;;;;5031810;28;20052;-76
2023/12/04 07:54:59;;;;;;;15.82;8.55;;;1.60;99.90;;;;;;5045763;28;20036;-78
2023/12/04 07:57:25;;;;;;;17.13;9.50;;;1.60;99.90;;;;;;5022819;28;20071;-77
2023/12/04 07:59:50;;;;;;;19.92;9.73;;;1.60;99.90;;;;;;5017551;28;20041;-77
2023/12/04 08:02:16;;;;;;;16.98;8.82;;;1.70;99.90;;;;;;5033492;28;20037;-76
2023/12/04 08:04:41;;;;;;;16.02;9.13;;;1.60;99.90;;;;;;5019219;28;20087;-77
2023/12/04 08:07:07;;;;;;;17.75;8.75;;;1.70;99.90;;;;;;5023456;28;20468;-77
2023/12/04 08:09:33;;;;;;;17.63;8.93;;;1.60;99.90;;;;;;5025977;28;20047;-77
2023/12/04 08:11:59;;;;;;;15.85;8.38;;;1.60;99.90;;;;;;5023820;28;20048;-76
2023/12/04 08:14:24;;;;;;;18.85;8.77;;;1.60;99.90;;;;;;5023134;28;20048;-77
2023/12/04 08:16:50;;;;;;;15.25;8.52;;;1.60;99.90;;;;;;5045543;28;20037;-78
2023/12/04 08:19:16;;;;;;;16.40;8.60;;;1.60;99.90;;;;;;5033942;28;20105;-79
2023/12/04 08:21:41;;;;;;;16.23;8.45;;;1.60;99.90;;;;;;5028965;28;20048;-77
2023/12/04 08:24:07;;;;;;;15.48;8.27;;;1.60;99.90;;;;;;5039070;28;20041;-77
2023/12/04 08:26:33;;;;;;;15.02;8.07;;;1.60;99.90;;;;;;5043369;28;20032;-78
2023/12/04 08:28:59;;;;;;;15.98;8.23;;;1.60;99.90;;;;;;5043876;28;20064;-78
2023/12/04 08:31:24;;;;;;;15.07;8.35;;;1.60;99.90;;;;;;5022399;28;20658;-77
2023/12/04 08:33:50;;;;;;;13.00;7.68;;;1.60;99.90;;;;;;5020655;28;20029;-77
2023/12/04 08:36:15;;;;;;;14.93;7.97;;;1.60;99.90;;;;;;5021404;28;20083;-77
2023/12/04 08:38:41;;;;;;;15.10;7.95;;;1.70;99.90;;;;;;5024162;28;20284;-77
2023/12/04 08:41:07;;;;;;;14.75;8.13;;;1.70;99.90;;;;;;5017566;28;21382;-77
2023/12/04 08:43:33;;;;;;;14.73;8.05;;;1.70;99.90;;;;;;5026823;28;20051;-77
2023/12/04 08:46:00;;;;;;;14.27;7.43;;;1.70;99.90;;;;;;5044036;28;20037;-77
2023/12/04 08:48:25;;;;;;;13.85;7.95;;;1.70;99.90;;;;;;5024832;28;20122;-78
2023/12/04 08:50:51;;;;;;;13.85;7.75;;;1.80;99.90;;;;;;5040657;28;20490;-78
2023/12/04 08:53:16;;;;;;;13.40;7.50;;;1.70;99.90;;;;;;5023572;28;20087;-77
2023/12/04 08:55:42;;;;;;;12.80;7.25;;;1.80;99.90;;;;;;5028098;28;20045;-77
2023/12/04 08:58:07;;;;;;;13.68;7.93;;;1.80;99.90;;;;;;5026584;28;20125;-77
2023/12/04 09:00:35;;;;;;;15.40;8.52;;;1.80;99.90;;;;;;5021142;28;20044;-77
2023/12/04 09:03:01;;;;;;;12.40;7.20;;;1.80;99.90;;;;;;5041492;28;20037;-77
2023/12/04 09:05:27;;;;;;;15.15;8.25;;;1.80;99.90;;;;;;5023341;28;20037;-77
2023/12/04 09:07:53;;;;;;;13.55;7.32;;;1.90;99.90;;;;;;5048325;28;20052;-77
2023/12/04 09:10:19;;;;;;;14.30;7.70;;;1.90;99.90;;;;;;5012385;28;20040;-75
2023/12/04 09:12:45;;;;;;;15.25;8.18;;;1.90;99.90;;;;;;5022845;28;20049;-77
2023/12/04 09:15:11;;;;;;;15.65;8.18;;;1.90;99.90;;;;;;5021790;28;20378;-78
2023/12/04 09:17:37;;;;;;;17.33;10.30;;;1.90;99.90;;;;;;5021600;28;20041;-77
2023/12/04 09:20:05;;;;;;;14.55;8.65;;;1.90;99.90;;;;;;5041055;28;20046;-76
2023/12/04 09:22:31;;;;;;;14.10;8.50;;;1.90;99.90;;;;;;5042909;28;20044;-76
2023/12/04 09:24:57;;;;;;;14.90;8.07;;;1.90;99.90;;;;;;5003391;28;20049;-76
2023/12/04 09:27:23;;;;;;;17.70;10.80;;;2.00;99.90;;;;;;5022363;28;20033;-77
2023/12/04 09:29:48;;;;;;;15.82;9.20;;;2.00;99.90;;;;;;5021560;28;20060;-77
2023/12/04 09:32:14;;;;;;;14.32;9.02;;;2.10;99.90;;;;;;5028543;28;20045;-77
2023/12/04 09:34:40;;;;;;;14.95;8.43;;;2.00;99.90;;;;;;5029707;28;20045;-78
2023/12/04 09:37:05;;;;;;;13.52;8.35;;;2.10;99.90;;;;;;5026601;28;20096;-78
2023/12/04 09:39:31;;;;;;;18.40;11.23;;;2.10;99.90;;;;;;5023373;28;20169;-77
2023/12/04 09:41:58;;;;;;;15.50;9.45;;;2.10;99.90;;;;;;5040121;28;20041;-77
2023/12/04 09:44:24;;;;;;;17.02;11.73;;;2.10;99.90;;;;;;5046053;28;20116;-76
2023/12/04 09:46:51;;;;;;;17.98;11.27;;;2.10;99.90;;;;;;5025670;28;20072;-77
2023/12/04 09:49:18;;;;;;;15.70;9.15;;;2.20;99.90;;;;;;5026145;28;20045;-77
2023/12/04 09:51:44;;;;;;;21.27;14.02;;;2.20;99.90;;;;;;5020436;28;20497;-77
2023/12/04 09:54:12;;;;;;;14.50;9.48;;;2.20;99.90;;;;;;5016836;28;20378;-76
2023/12/04 09:56:38;;;;;;;18.05;9.77;;;2.20;99.90;;;;;;5038355;28;20492;-77
2023/12/04 09:59:06;;;;;;;15.88;10.43;;;2.20;99.90;;;;;;5031301;28;20535;-77
2023/12/04 10:01:32;;;;;;;15.27;9.50;;;2.30;99.90;;;;;;5022722;28;20037;-77
2023/12/04 10:03:59;;;;;;;14.05;8.70;;;2.30;99.90;;;;;;5016393;28;20789;-77
2023/12/04 10:06:31;;;;;;;19.60;11.23;;;2.30;99.90;;;;;;5041030;28;20064;-77
2023/12/04 10:08:58;;;;;;;17.60;11.30;;;2.30;99.90;;;;;;5024627;28;20040;-78
2023/12/04 10:11:24;;;;;;;18.30;10.55;;;2.30;99.90;;;;;;5024984;28;20049;-77
2023/12/04 10:13:50;;;;;;;16.80;9.50;;;2.30;99.90;;;;;;5042309;28;20538;-78
2023/12/04 10:16:32;;;;;;;13.82;8.38;;;2.40;99.90;;;;;;5039791;28;20073;-76
2023/12/04 10:19:16;;;;;;;13.23;8.35;;;2.40;99.90;;;;;;5023972;28;20038;-77
2023/12/04 10:21:42;;;;;;;15.57;9.13;;;2.40;99.90;;;;;;5048479;28;20041;-78
2023/12/04 10:24:08;;;;;;;13.73;7.65;;;2.40;99.90;;;;;;5026187;28;20041;-78
2023/12/04 10:26:34;;;;;;;17.30;7.70;;;2.40;99.90;;;;;;5030464;28;20073;-77
2023/12/04 10:29:02;;;;;;;13.95;8.57;;;2.40;99.90;;;;;;5021818;28;20523;-79
2023/12/04 10:31:33;;;;;;;14.43;8.23;;;2.40;99.90;;;;;;5019550;28;20131;-77
2023/12/04 10:33:59;;;;;;;14.10;8.13;;;2.40;99.90;;;;;;5016874;28;20056;-76
2023/12/04 10:36:25;;;;;;;13.70;7.57;;;2.40;99.90;;;;;;5018748;28;20284;-75
2023/12/04 10:39:00;;;;;;;13.88;7.32;;;2.40;99.90;;;;;;5018084;28;20055;-74
2023/12/04 10:41:26;;;;;;;14.27;8.18;;;2.40;99.90;;;;;;5017542;28;20072;-74
2023/12/04 10:43:51;;;;;;;12.80;6.78;;;2.40;99.90;;;;;;5018433;28;21445;-75
2023/12/04 10:46:18;;;;;;;12.48;6.65;;;2.40;99.90;;;;;;5039273;28;20038;-73
2023/12/04 10:48:47;;;;;;;13.75;7.65;;;2.40;99.90;;;;;;5040124;28;20056;-74
2023/12/04 10:51:13;;;;;;;15.10;7.90;;;2.50;99.90;;;;;;5023906;28;20099;-74
2023/12/04 10:53:42;;;;;;;11.82;6.85;;;2.50;99.90;;;;;;5049723;28;20041;-74
2023/12/04 10:56:10;;;;;;;13.95;8.27;;;2.50;99.90;;;;;;5040304;28;20037;-74
2023/12/04 10:58:37;;;;;;;12.63;7.80;;;2.40;99.90;;;;;;5012928;28;20040;-73
2023/12/04 11:01:08;;;;;;;14.88;8.48;;;2.50;99.90;;;;;;5044202;28;20033;-74
2023/12/04 11:03:51;;;;;;;16.33;8.95;;;2.50;99.90;;;;;;5040477;28;20409;-73
2023/12/04 11:06:20;;;;;;;14.20;8.30;;;2.50;99.90;;;;;;5005930;28;20041;-74
2023/12/04 11:08:48;;;;;;;15.90;8.20;;;2.50;99.90;;;;;;5022004;28;20037;-74
2023/12/04 11:11:18;;;;;;;12.07;7.55;;;2.50;99.90;;;;;;5022931;28;20056;-71
2023/12/04 11:13:49;;;;;;;11.20;7.38;;;2.50;99.90;;;;;;5023041;28;20049;-76
2023/12/04 11:16:22;;;;;;;12.27;7.75;;;2.60;99.90;;;;;;5024506;28;20048;-77
2023/12/04 11:18:54;;;;;;;14.38;7.97;;;2.60;99.90;;;;;;5025028;28;20060;-76
2023/12/04 11:21:20;;;;;;;13.50;7.80;;;2.50;99.90;;;;;;5022217;28;20111;-76
2023/12/04 11:23:47;;;;;;;14.02;8.13;;;2.60;99.90;;;;;;5039821;28;20037;-75
2023/12/04 11:26:15;;;;;;;14.88;8.18;;;2.60;99.90;;;;;;5038908;28;20041;-76
2023/12/04 11:28:41;;;;;;;12.55;7.65;;;2.60;99.90;;;;;;5022516;28;20143;-76
2023/12/04 11:31:07;;;;;;;12.05;7.22;;;2.60;99.90;;;;;;5027380;28;20112;-76
2023/12/04 11:33:39;;;;;;;14.40;8.25;;;2.60;99.90;;;;;;5046232;28;20048;-76
2023/12/04 11:36:10;;;;;;;11.55;7.43;;;2.70;99.90;;;;;;5025816;28;20041;-76
2023/12/04 11:38:38;;;;;;;11.10;6.72;;;2.70;99.90;;;;;;5018089;28;20705;-75
2023/12/04 11:41:19;;;;;;;13.70;7.05;;;2.70;99.90;;;;;;5007426;28;20124;-72
2023/12/04 11:43:47;;;;;;;12.60;8.77;;;2.70;99.90;;;;;;5043782;28;20052;-74
2023/12/04 11:46:20;;;;;;;14.05;8.50;;;2.70;99.90;;;;;;5032832;28;20049;-75
2023/12/04 11:48:47;;;;;;;21.65;14.07;;;2.70;99.90;;;;;;5029883;28;20083;-75
2023/12/04 11:51:35;;;;;;;16.85;9.77;;;2.70;99.90;;;;;;5041064;28;20544;-75
2023/12/04 11:54:01;;;;;;;25.10;14.80;;;2.80;99.90;;;;;;5042616;28;20049;-76
2023/12/04 11:56:26;;;;;;;15.25;8.63;;;2.80;99.90;;;;;;5023761;28;20131;-76
2023/12/04 11:58:52;;;;;;;17.08;10.05;;;2.80;99.90;;;;;;5040620;28;20056;-73
2023/12/04 12:01:18;;;;;;;18.52;11.35;;;2.80;99.90;;;;;;5024779;28;20037;-75
2023/12/04 12:03:44;;;;;;;25.25;16.20;;;2.80;99.90;;;;;;5023265;28;20104;-75
2023/12/04 12:06:09;;;;;;;20.65;11.70;;;2.80;99.90;;;;;;5028238;28;20090;-75
2023/12/04 12:08:35;;;;;;;20.30;11.52;;;2.80;99.90;;;;;;5026697;28;20033;-78
2023/12/04 12:11:02;;;;;;;17.30;10.13;;;2.80;99.90;;;;;;5026704;28;20053;-77
2023/12/04 12:13:27;;;;;;;21.67;14.75;;;2.80;99.90;;;;;;5029393;28;20551;-76
2023/12/04 12:15:53;;;;;;;17.33;12.07;;;2.90;99.90;;;;;;5026930;28;20079;-77
2023/12/04 12:18:21;;;;;;;18.17;13.48;;;2.90;99.90;;;;;;5021619;28;20090;-74
2023/12/04 12:20:46;;;;;;;15.68;10.00;;;2.90;99.90;;;;;;5040442;28;20041;-77
2023/12/04 12:23:12;;;;;;;13.40;8.30;;;2.90;99.90;;;;;;5045937;28;20033;-77
2023/12/04 12:25:38;;;;;;;13.65;8.30;;;2.90;99.90;;;;;;5028016;28;20041;-76
2023/12/04 12:28:04;;;;;;;12.35;7.43;;;2.90;99.90;;;;;;5044342;28;20044;-76
2023/12/04 12:30:30;;;;;;;13.07;7.88;;;2.90;99.90;;;;;;5022559;28;20048;-77
2023/12/04 12:32:56;;;;;;;12.27;7.60;;;2.90;99.90;;;;;;5026366;28;20449;-77
2023/12/04 12:35:23;;;;;;;12.63;7.60;;;2.90;99.90;;;;;;5022925;28;20037;-78